createdAt,value
2022-10-17T00:02:07.198Z,1.50
2022-10-17T00:07:06.973Z,1.53
2022-10-17T00:09:34.425Z,1.83
2022-10-17T00:12:02.603Z,1.60
2022-10-17T00:14:30.077Z,1.47
2022-10-17T00:16:57.488Z,1.63
2022-10-17T00:19:26.305Z,2.20
2022-10-17T00:21:53.901Z,1.80
2022-10-17T00:24:21.343Z,1.77
2022-10-17T00:26:48.778Z,1.70
2022-10-17T00:29:16.217Z,1.70
2022-10-17T00:31:43.682Z,1.40
2022-10-17T00:34:11.294Z,1.80
2022-10-17T00:36:40.090Z,1.50
2022-10-17T00:39:08.466Z,1.90
2022-10-17T00:41:35.891Z,1.73
2022-10-17T00:44:07.917Z,1.60
2022-10-17T00:46:36.343Z,1.60
2022-10-17T00:49:05.730Z,1.80
2022-10-17T00:51:35.455Z,1.70
2022-10-17T00:54:04.877Z,1.70
2022-10-17T00:56:32.845Z,1.43
2022-10-17T00:59:00.539Z,1.70
2022-10-17T01:01:28.120Z,1.50
2022-10-17T01:03:55.574Z,1.80
2022-10-17T01:06:23.005Z,1.73
2022-10-17T01:08:50.445Z,1.60
2022-10-17T01:11:24.017Z,1.33
2022-10-17T01:13:54.102Z,1.60
2022-10-17T01:16:26.626Z,1.20
2022-10-17T01:19:02.294Z,1.27
2022-10-17T01:21:38.285Z,1.33
2022-10-17T01:24:29.746Z,1.30
2022-10-17T01:27:08.805Z,1.50
2022-10-17T01:29:53.374Z,1.17
2022-10-17T01:32:25.433Z,1.30
2022-10-17T01:34:56.499Z,1.40
2022-10-17T01:37:29.475Z,1.33
2022-10-17T01:40:04.262Z,1.20
2022-10-17T01:42:35.049Z,1.20
2022-10-17T01:45:04.465Z,1.40
2022-10-17T01:47:34.614Z,1.07
2022-10-17T01:50:06.429Z,1.00
2022-10-17T01:52:36.528Z,1.10
2022-10-17T01:55:07.099Z,1.10
2022-10-17T01:57:36.998Z,1.47
2022-10-17T02:00:07.164Z,1.20
2022-10-17T02:02:42.017Z,1.30
2022-10-17T02:05:09.631Z,1.40
2022-10-17T02:07:37.099Z,1.10
2022-10-17T02:10:05.755Z,0.87
2022-10-17T02:12:38.994Z,1.00
2022-10-17T02:15:11.215Z,1.00
2022-10-17T02:17:45.743Z,1.20
2022-10-17T02:20:18.058Z,1.10
2022-10-17T02:22:48.610Z,0.90
2022-10-17T02:25:19.184Z,1.03
2022-10-17T02:27:49.697Z,0.87
2022-10-17T02:30:24.441Z,1.10
2022-10-17T02:32:56.113Z,1.03
2022-10-17T02:35:25.097Z,0.87
2022-10-17T02:37:53.240Z,0.70
2022-10-17T02:40:23.141Z,1.00
2022-10-17T02:42:54.229Z,0.80
2022-10-17T02:45:22.764Z,0.93
2022-10-17T02:47:56.621Z,0.90
2022-10-17T02:53:05.873Z,0.80
2022-10-17T02:55:34.292Z,0.73
2022-10-17T02:58:05.245Z,0.97
2022-10-17T03:00:33.004Z,0.90
2022-10-17T03:03:01.789Z,0.90
2022-10-17T03:05:30.405Z,1.27
2022-10-17T03:07:58.399Z,1.27
2022-10-17T03:10:25.857Z,1.00
2022-10-17T03:12:53.374Z,1.00
2022-10-17T03:15:21.637Z,1.10
2022-10-17T03:17:49.239Z,1.20
2022-10-17T03:20:21.199Z,1.30
2022-10-17T03:22:50.200Z,1.30
2022-10-17T03:25:17.743Z,1.40
2022-10-17T03:27:48.244Z,1.13
2022-10-17T03:30:16.668Z,1.20
2022-10-17T03:32:44.520Z,1.63
2022-10-17T03:35:14.835Z,1.50
2022-10-17T03:37:46.513Z,1.63
2022-10-17T03:40:14.987Z,1.77
2022-10-17T03:42:42.459Z,1.50
2022-10-17T03:45:10.228Z,2.20
2022-10-17T03:47:38.219Z,2.30
2022-10-17T03:50:06.087Z,2.30
2022-10-17T03:52:36.509Z,4.57
2022-10-17T03:55:06.631Z,3.63
2022-10-17T03:57:35.353Z,2.93
2022-10-17T04:00:05.280Z,2.93
2022-10-17T04:02:41.732Z,2.23
2022-10-17T04:05:13.520Z,2.23
2022-10-17T04:07:41.796Z,2.13
2022-10-17T04:10:11.843Z,1.83
2022-10-17T04:12:39.511Z,2.37
2022-10-17T04:15:07.994Z,2.37
2022-10-17T04:17:38.165Z,2.23
2022-10-17T04:20:07.105Z,2.10
2022-10-17T04:22:35.198Z,1.80
2022-10-17T04:25:03.023Z,2.10
2022-10-17T04:27:38.381Z,2.27
2022-10-17T04:30:07.276Z,2.27
2022-10-17T04:32:37.386Z,2.00
2022-10-17T04:35:19.094Z,1.87
2022-10-17T04:37:51.381Z,2.13
2022-10-17T04:40:20.854Z,1.90
2022-10-17T04:42:49.762Z,1.60
2022-10-17T04:45:21.040Z,1.77
2022-10-17T04:47:52.217Z,2.10
2022-10-17T04:50:19.745Z,1.67
2022-10-17T04:53:04.804Z,1.80
2022-10-17T04:55:32.439Z,1.70
2022-10-17T04:58:01.268Z,1.90
2022-10-17T05:00:30.229Z,1.63
2022-10-17T05:03:02.008Z,1.80
2022-10-17T05:05:30.445Z,1.70
2022-10-17T05:07:58.331Z,1.80
2022-10-17T05:10:31.996Z,1.77
2022-10-17T05:13:01.153Z,1.77
2022-10-17T05:15:32.293Z,1.70
2022-10-17T05:18:00.068Z,1.57
2022-10-17T05:20:29.583Z,1.63
2022-10-17T05:22:57.221Z,1.90
2022-10-17T05:25:24.766Z,1.57
2022-10-17T05:27:52.243Z,1.30
2022-10-17T05:30:21.306Z,1.80
2022-10-17T05:32:53.209Z,1.87
2022-10-17T05:35:20.662Z,1.77
2022-10-17T05:37:48.571Z,1.90
2022-10-17T05:40:17.720Z,1.70
2022-10-17T05:42:48.721Z,1.97
2022-10-17T05:45:18.098Z,1.57
2022-10-17T05:47:48.177Z,2.00
2022-10-17T05:50:17.309Z,1.70
2022-10-17T05:53:00.111Z,1.93
2022-10-17T05:55:28.512Z,1.60
2022-10-17T05:57:56.014Z,1.57
2022-10-17T06:00:25.730Z,1.50
2022-10-17T06:02:59.605Z,1.93
2022-10-17T06:05:27.073Z,1.80
2022-10-17T06:07:58.242Z,1.77
2022-10-17T06:10:29.448Z,1.60
2022-10-17T06:12:57.786Z,1.87
2022-10-17T06:15:26.677Z,3.10
2022-10-17T06:18:03.913Z,2.80
2022-10-17T06:20:31.728Z,3.03
2022-10-17T06:22:59.239Z,3.10
2022-10-17T06:25:39.594Z,3.23
2022-10-17T06:28:07.221Z,2.83
2022-10-17T06:30:34.820Z,2.30
2022-10-17T06:33:03.674Z,2.60
2022-10-17T06:35:31.448Z,2.27
2022-10-17T06:37:59.168Z,2.33
2022-10-17T06:40:26.975Z,2.00
2022-10-17T06:42:55.558Z,2.30
2022-10-17T06:45:39.027Z,1.60
2022-10-17T06:48:20.122Z,1.77
2022-10-17T06:51:11.429Z,1.77
2022-10-17T06:53:49.528Z,1.30
2022-10-17T06:56:49.520Z,1.60
2022-10-17T06:59:29.854Z,1.90
2022-10-17T07:02:06.386Z,1.90
2022-10-17T07:04:35.475Z,1.80
2022-10-17T07:07:03.388Z,1.80
2022-10-17T07:09:33.023Z,1.83
2022-10-17T07:12:00.714Z,1.63
2022-10-17T07:14:31.991Z,1.43
2022-10-17T07:16:59.966Z,1.80
2022-10-17T07:19:29.370Z,1.90
2022-10-17T07:21:58.185Z,1.53
2022-10-17T07:24:26.350Z,2.13
2022-10-17T07:27:13.448Z,1.80
2022-10-17T07:29:41.135Z,1.83
2022-10-17T07:32:11.953Z,1.90
2022-10-17T07:34:39.379Z,2.00
2022-10-17T07:37:10.606Z,2.77
2022-10-17T07:39:41.331Z,2.00
2022-10-17T07:42:09.126Z,2.27
2022-10-17T07:44:36.768Z,2.40
2022-10-17T07:47:05.407Z,2.20
2022-10-17T07:49:32.899Z,2.23
2022-10-17T07:52:00.343Z,2.57
2022-10-17T07:54:29.117Z,2.37
2022-10-17T07:56:56.805Z,2.10
2022-10-17T07:59:24.331Z,2.07
2022-10-17T08:01:51.819Z,1.90
2022-10-17T08:04:19.258Z,2.10
2022-10-17T08:06:46.817Z,1.93
2022-10-17T08:09:14.273Z,1.90
2022-10-17T08:11:44.182Z,1.90
2022-10-17T08:14:12.436Z,1.83
2022-10-17T08:16:39.977Z,1.90
2022-10-17T08:21:41.536Z,1.77
2022-10-17T08:24:09.490Z,3.73
2022-10-17T08:26:40.651Z,2.47
2022-10-17T08:29:15.086Z,2.10
2022-10-17T08:31:46.478Z,1.50
2022-10-17T08:34:15.803Z,2.00
2022-10-17T08:36:43.281Z,2.03
2022-10-17T08:39:10.967Z,2.07
2022-10-17T08:41:45.027Z,1.80
2022-10-17T08:44:18.338Z,1.73
2022-10-17T08:46:47.882Z,1.87
2022-10-17T08:49:20.592Z,1.80
2022-10-17T08:51:50.202Z,2.30
2022-10-17T08:54:19.771Z,12.33
2022-10-17T08:56:49.943Z,2.00
2022-10-17T08:59:21.054Z,2.03
2022-10-17T09:01:51.040Z,2.03
2022-10-17T09:04:42.715Z,1.77
2022-10-17T09:07:14.318Z,1.80
2022-10-17T09:09:45.442Z,2.13
2022-10-17T09:12:16.394Z,2.03
2022-10-17T09:14:51.791Z,2.10
2022-10-17T09:17:25.271Z,1.80
2022-10-17T09:19:56.123Z,1.73
2022-10-17T09:22:25.140Z,1.60
2022-10-17T09:24:55.497Z,1.70
2022-10-17T09:27:24.643Z,1.90
2022-10-17T09:29:55.749Z,1.93
2022-10-17T09:32:25.041Z,1.97
2022-10-17T09:34:53.044Z,1.77
2022-10-17T09:37:23.357Z,2.47
2022-10-17T09:39:50.873Z,1.93
2022-10-17T09:42:21.610Z,2.00
2022-10-17T09:44:52.401Z,1.70
2022-10-17T09:47:26.748Z,1.50
2022-10-17T09:49:54.447Z,2.00
2022-10-17T09:52:23.860Z,1.53
2022-10-17T09:54:52.247Z,1.60
2022-10-17T09:57:20.353Z,1.90
2022-10-17T09:59:56.296Z,1.50
2022-10-17T10:02:26.025Z,2.07
2022-10-17T10:05:05.403Z,1.50
2022-10-17T10:07:34.928Z,1.80
2022-10-17T10:10:03.685Z,1.90
2022-10-17T10:12:32.620Z,1.80
2022-10-17T10:15:00.656Z,1.70
2022-10-17T10:17:34.483Z,1.80
2022-10-17T10:20:02.342Z,1.90
2022-10-17T10:22:30.374Z,1.83
2022-10-17T10:25:08.291Z,1.53
2022-10-17T10:27:36.398Z,1.73
2022-10-17T10:30:04.518Z,1.63
2022-10-17T10:32:34.723Z,1.73
2022-10-17T10:35:06.506Z,1.70
2022-10-17T10:37:36.765Z,2.10
2022-10-17T10:40:06.347Z,1.83
2022-10-17T10:42:35.354Z,2.17
2022-10-17T10:45:04.090Z,1.93
2022-10-17T10:47:33.668Z,1.70
2022-10-17T10:50:19.115Z,1.73
2022-10-17T10:52:48.640Z,1.90
2022-10-17T10:55:22.332Z,1.93
2022-10-17T10:57:50.212Z,2.17
2022-10-17T11:00:20.418Z,1.97
2022-10-17T11:02:53.885Z,1.97
2022-10-17T11:05:23.321Z,1.67
2022-10-17T11:07:55.953Z,1.60
2022-10-17T11:10:26.212Z,1.80
2022-10-17T11:12:58.065Z,1.40
2022-10-17T11:15:28.980Z,1.90
2022-10-17T11:17:59.782Z,1.57
2022-10-17T11:20:31.451Z,1.60
2022-10-17T11:23:02.484Z,1.37
2022-10-17T11:25:33.032Z,1.73
2022-10-17T11:28:04.732Z,1.77
2022-10-17T11:30:40.553Z,1.63
2022-10-17T11:33:11.681Z,1.87
2022-10-17T11:35:41.349Z,2.30
2022-10-17T11:38:13.693Z,1.63
2022-10-17T11:40:42.287Z,1.90
2022-10-17T11:43:13.661Z,2.33
2022-10-17T11:45:43.277Z,2.23
2022-10-17T11:48:14.689Z,1.77
2022-10-17T11:53:34.712Z,1.80
2022-10-17T11:56:02.541Z,1.80
2022-10-17T11:58:33.992Z,2.03
2022-10-17T12:01:07.375Z,2.20
2022-10-17T12:03:49.146Z,2.23
2022-10-17T12:06:18.737Z,2.47
2022-10-17T12:08:50.865Z,2.10
2022-10-17T12:11:24.705Z,6.47
2022-10-17T12:13:54.445Z,2.57
2022-10-17T12:16:38.890Z,2.13
2022-10-17T12:19:28.682Z,1.53
2022-10-17T12:21:57.515Z,1.80
2022-10-17T12:24:32.427Z,1.70
2022-10-17T12:27:15.600Z,1.70
2022-10-17T12:29:43.036Z,1.70
2022-10-17T12:32:11.730Z,1.20
2022-10-17T12:34:40.553Z,1.33
2022-10-17T12:37:11.397Z,1.00
2022-10-17T12:39:42.859Z,1.10
2022-10-17T12:42:25.194Z,1.10
2022-10-17T12:44:52.642Z,1.10
2022-10-17T12:47:29.365Z,1.00
2022-10-17T12:49:58.738Z,1.83
2022-10-17T12:52:28.933Z,1.10
2022-10-17T12:55:11.668Z,1.30
2022-10-17T12:57:43.477Z,1.13
2022-10-17T13:00:17.154Z,1.17
2022-10-17T13:02:45.334Z,1.20
2022-10-17T13:05:15.458Z,1.20
2022-10-17T13:07:45.096Z,1.20
2022-10-17T13:10:20.051Z,1.40
2022-10-17T13:12:48.423Z,1.30
2022-10-17T13:15:17.687Z,1.40
2022-10-17T13:17:45.546Z,1.17
2022-10-17T13:20:25.550Z,1.33
2022-10-17T13:22:57.429Z,1.40
2022-10-17T13:25:26.210Z,1.33
2022-10-17T13:28:04.500Z,1.70
2022-10-17T13:30:32.925Z,1.53
2022-10-17T13:33:00.493Z,1.60
2022-10-17T13:35:48.564Z,1.80
2022-10-17T13:40:50.090Z,1.87
2022-10-17T13:43:18.824Z,1.90
2022-10-17T13:45:47.868Z,2.33
2022-10-17T13:48:20.220Z,2.43
2022-10-17T13:50:51.605Z,2.40
2022-10-17T13:53:20.599Z,2.50
2022-10-17T13:56:09.146Z,2.43
2022-10-17T13:58:41.025Z,3.17
2022-10-17T14:01:09.093Z,3.23
2022-10-17T14:03:48.184Z,3.20
2022-10-17T14:06:19.475Z,3.20
2022-10-17T14:08:49.285Z,3.30
2022-10-17T14:11:19.858Z,3.40
2022-10-17T14:13:49.669Z,3.47
2022-10-17T14:16:17.378Z,3.77
2022-10-17T14:18:47.988Z,4.63
2022-10-17T14:21:43.935Z,4.43
2022-10-17T14:24:27.946Z,4.10
2022-10-17T14:26:58.511Z,4.70
2022-10-17T14:29:28.064Z,4.37
2022-10-17T14:32:03.741Z,5.13
2022-10-17T14:34:33.290Z,4.40
2022-10-17T14:37:02.444Z,4.90
2022-10-17T14:39:30.310Z,5.30
2022-10-17T14:42:00.795Z,6.10
2022-10-17T14:44:32.658Z,6.30
2022-10-17T14:47:03.445Z,6.03
2022-10-17T14:49:41.603Z,6.37
2022-10-17T14:52:31.107Z,6.63
2022-10-17T14:55:00.081Z,7.40
2022-10-17T14:57:41.622Z,7.47
2022-10-17T15:00:11.203Z,8.07
2022-10-17T15:02:38.649Z,7.43
2022-10-17T15:05:12.097Z,8.43
2022-10-17T15:07:43.820Z,8.73
2022-10-17T15:10:21.779Z,10.33
2022-10-17T15:12:58.815Z,10.53
2022-10-17T15:15:27.427Z,10.30
2022-10-17T15:17:54.844Z,11.03
2022-10-17T15:20:26.009Z,11.17
2022-10-17T15:22:55.142Z,12.27
2022-10-17T15:25:22.679Z,13.07
2022-10-17T15:27:50.117Z,13.30
2022-10-17T15:30:21.638Z,13.10
2022-10-17T15:32:49.652Z,12.37
2022-10-17T15:35:17.696Z,12.57
2022-10-17T15:37:46.665Z,12.90
2022-10-17T15:40:17.400Z,13.37
2022-10-17T15:42:47.609Z,12.77
2022-10-17T15:45:16.203Z,12.57
2022-10-17T15:47:44.434Z,13.60
2022-10-17T15:50:14.219Z,13.67
2022-10-17T15:52:42.218Z,14.17
2022-10-17T15:55:10.068Z,14.80
2022-10-17T15:57:40.113Z,13.90
2022-10-17T16:00:15.481Z,14.63
2022-10-17T16:02:43.982Z,17.60
2022-10-17T16:05:16.021Z,25.57
2022-10-17T16:07:43.582Z,20.83
2022-10-17T16:10:11.102Z,14.37
2022-10-17T16:12:41.273Z,18.70
2022-10-17T16:15:09.304Z,16.07
2022-10-17T16:17:36.894Z,14.57
2022-10-17T16:20:04.631Z,14.17
2022-10-17T16:22:33.433Z,13.90
2022-10-17T16:25:07.824Z,13.83
2022-10-17T16:27:36.074Z,14.53
2022-10-17T16:30:05.986Z,13.10
2022-10-17T16:32:33.501Z,15.03
2022-10-17T16:35:01.460Z,14.73
2022-10-17T16:37:29.133Z,15.27
2022-10-17T16:39:56.657Z,14.47
2022-10-17T16:42:24.231Z,14.73
2022-10-17T16:44:51.773Z,15.37
2022-10-17T16:47:20.618Z,14.33
2022-10-17T16:49:48.211Z,15.47
2022-10-17T16:52:16.004Z,14.57
2022-10-17T16:54:43.468Z,14.80
2022-10-17T16:57:10.953Z,15.40
2022-10-17T16:59:38.405Z,14.47
2022-10-17T17:02:05.898Z,15.20
2022-10-17T17:04:34.706Z,15.50
2022-10-17T17:07:02.356Z,15.07
2022-10-17T17:09:30.004Z,15.20
2022-10-17T17:11:57.482Z,14.53
2022-10-17T17:14:24.929Z,14.67
2022-10-17T17:16:52.564Z,14.63
2022-10-17T17:19:20.433Z,14.07
2022-10-17T17:21:50.830Z,14.03
2022-10-17T17:24:20.765Z,14.43
2022-10-17T17:26:51.348Z,14.17
2022-10-17T17:29:18.783Z,14.17
2022-10-17T17:31:46.356Z,14.23
2022-10-17T17:34:17.169Z,14.13
2022-10-17T17:36:45.722Z,15.63
2022-10-17T17:39:15.213Z,14.87
2022-10-17T17:41:43.088Z,13.83
2022-10-17T17:44:15.570Z,12.90
2022-10-17T17:46:44.344Z,14.40
2022-10-17T17:49:12.338Z,14.97
2022-10-17T17:51:41.441Z,15.30
2022-10-17T17:54:11.353Z,15.50
2022-10-17T17:56:40.731Z,16.50
2022-10-17T17:59:08.382Z,18.80
2022-10-17T18:01:38.653Z,20.83
2022-10-17T18:04:06.848Z,16.60
2022-10-17T18:06:34.438Z,15.87
2022-10-17T18:09:02.346Z,16.00
2022-10-17T18:11:29.847Z,14.10
2022-10-17T18:13:59.499Z,15.07
2022-10-17T18:16:27.358Z,15.87
2022-10-17T18:18:54.813Z,15.50
2022-10-17T18:21:22.460Z,14.13
2022-10-17T18:23:51.650Z,15.13
2022-10-17T18:26:19.670Z,15.63
2022-10-17T18:28:50.257Z,14.77
2022-10-17T18:31:23.993Z,14.00
2022-10-17T18:33:51.976Z,17.23
2022-10-17T18:36:19.498Z,17.17
2022-10-17T18:38:46.982Z,15.03
2022-10-17T18:41:15.987Z,13.47
2022-10-17T18:43:44.489Z,13.97
2022-10-17T18:46:14.936Z,13.97
2022-10-17T18:48:45.271Z,13.37
2022-10-17T18:51:13.389Z,14.33
2022-10-17T18:53:41.791Z,14.13
2022-10-17T18:56:09.264Z,13.73
2022-10-17T18:58:37.459Z,14.13
2022-10-17T19:01:05.465Z,12.90
2022-10-17T19:03:33.377Z,13.13
2022-10-17T19:06:03.115Z,14.00
2022-10-17T19:08:30.728Z,12.80
2022-10-17T19:10:58.249Z,13.77
2022-10-17T19:13:25.661Z,12.27
2022-10-17T19:15:53.112Z,13.30
2022-10-17T19:18:20.555Z,14.63
2022-10-17T19:20:48.232Z,14.67
2022-10-17T19:23:17.208Z,15.37
2022-10-17T19:25:44.679Z,15.87
2022-10-17T19:28:12.138Z,21.60
2022-10-17T19:30:42.536Z,19.43
2022-10-17T19:33:09.940Z,14.87
2022-10-17T19:35:37.934Z,18.90
2022-10-17T19:38:05.367Z,16.03
2022-10-17T19:40:35.393Z,14.20
2022-10-17T19:43:02.858Z,13.03
2022-10-17T19:45:30.438Z,11.83
2022-10-17T19:47:57.858Z,12.60
2022-10-17T19:50:25.280Z,12.20
2022-10-17T19:52:52.701Z,11.37
2022-10-17T19:55:20.156Z,12.23
2022-10-17T19:57:49.630Z,12.10
2022-10-17T20:00:17.251Z,11.40
2022-10-17T20:02:44.786Z,12.03
2022-10-17T20:05:18.377Z,12.57
2022-10-17T20:07:46.453Z,11.97
2022-10-17T20:10:13.963Z,11.73
2022-10-17T20:12:41.402Z,11.47
2022-10-17T20:15:10.725Z,11.87
2022-10-17T20:17:38.193Z,12.00
2022-10-17T20:20:08.645Z,11.67
2022-10-17T20:22:36.440Z,12.17
2022-10-17T20:25:04.021Z,12.43
2022-10-17T20:27:31.424Z,10.90
2022-10-17T20:30:01.744Z,11.57
2022-10-17T20:32:39.377Z,11.47
2022-10-17T20:35:08.068Z,11.17
2022-10-17T20:37:41.460Z,13.53
2022-10-17T20:40:33.527Z,13.97
2022-10-17T20:42:58.291Z,12.87
2022-10-17T20:45:37.606Z,14.97
2022-10-17T20:48:15.585Z,12.60
2022-10-17T20:50:43.595Z,10.80
2022-10-17T20:53:35.473Z,13.20
2022-10-17T20:56:03.349Z,13.77
2022-10-17T20:58:30.786Z,14.57
2022-10-17T21:00:58.245Z,18.07
2022-10-17T21:03:27.100Z,13.77
2022-10-17T21:05:54.560Z,12.00
2022-10-17T21:08:21.981Z,13.23
2022-10-17T21:10:49.778Z,11.63
2022-10-17T21:13:17.266Z,10.53
2022-10-17T21:15:44.735Z,9.90
2022-10-17T21:18:12.157Z,10.20
2022-10-17T21:20:40.929Z,10.17
2022-10-17T21:23:08.340Z,9.70
2022-10-17T21:25:35.784Z,9.70
2022-10-17T21:28:03.188Z,9.30
2022-10-17T21:30:30.977Z,8.87
2022-10-17T21:32:58.931Z,9.30
2022-10-17T21:35:26.504Z,9.27
2022-10-17T21:37:55.278Z,9.40
2022-10-17T21:40:22.793Z,9.20
2022-10-17T21:42:50.289Z,9.37
2022-10-17T21:45:25.225Z,8.90
2022-10-17T21:48:12.070Z,8.87
2022-10-17T21:50:40.877Z,8.63
2022-10-17T21:53:09.658Z,9.10
2022-10-17T21:55:37.425Z,8.83
2022-10-17T21:58:04.939Z,9.40
2022-10-17T22:00:32.727Z,8.03
2022-10-17T22:03:00.969Z,7.30
2022-10-17T22:05:30.165Z,7.77
2022-10-17T22:07:57.625Z,7.50
2022-10-17T22:10:26.444Z,7.53
2022-10-17T22:12:53.936Z,6.67
2022-10-17T22:15:21.382Z,7.80
2022-10-17T22:17:48.859Z,7.07
2022-10-17T22:20:16.387Z,6.63
2022-10-17T22:22:43.840Z,6.50
2022-10-17T22:25:11.271Z,6.97
2022-10-17T22:27:40.249Z,6.90
2022-10-17T22:30:08.329Z,6.70
2022-10-17T22:32:35.750Z,6.90
2022-10-17T22:35:03.240Z,6.63
2022-10-17T22:37:30.893Z,7.10
2022-10-17T22:39:58.573Z,7.07
2022-10-17T22:42:26.018Z,7.60
2022-10-17T22:44:54.806Z,7.63
2022-10-17T22:47:22.241Z,6.93
2022-10-17T22:49:49.672Z,7.60
2022-10-17T22:52:17.083Z,7.13
2022-10-17T22:54:44.589Z,6.80
2022-10-17T22:57:12.901Z,6.40
2022-10-17T22:59:40.341Z,7.07
2022-10-17T23:02:09.102Z,6.97
2022-10-17T23:04:37.195Z,6.90
2022-10-17T23:07:07.341Z,7.53
2022-10-17T23:09:34.843Z,7.53
2022-10-17T23:12:02.288Z,6.93
2022-10-17T23:14:29.704Z,7.03
2022-10-17T23:16:57.108Z,7.80
2022-10-17T23:19:25.921Z,7.30
2022-10-17T23:21:53.448Z,7.33
2022-10-17T23:24:20.902Z,7.23
2022-10-17T23:26:48.338Z,7.80
2022-10-17T23:29:15.781Z,6.93
2022-10-17T23:31:43.255Z,7.27
2022-10-17T23:34:10.678Z,7.30
2022-10-17T23:36:39.462Z,8.13
2022-10-17T23:39:07.424Z,7.27
2022-10-17T23:41:34.915Z,6.47
2022-10-17T23:44:02.345Z,6.67
2022-10-17T23:46:29.780Z,6.33
2022-10-17T23:48:57.254Z,6.60
2022-10-17T23:51:24.701Z,6.70
2022-10-17T23:53:53.494Z,7.73
2022-10-17T23:56:20.911Z,7.03
2022-10-17T23:58:48.385Z,7.33
